Time;durP1;ratioP1;P1;durP2;ratioP2;P2;SDS_P1;SDS_P2;PMS_P1;PMS_P2;Temp;Humidity;BMP_temperature;BMP_pressure;BME280_temperature;BME280_humidity;BME280_pressure;Samples;Min_cycle;Max_cycle;Signal;HPM_P1;HPM_P2
2022/01/29 00:00:14;;;;;;;4.47;3.40;;;4.60;99.90;;;;;;5046896;28;20246;-68
2022/01/29 00:02:41;;;;;;;4.57;3.20;;;4.60;99.90;;;;;;5025331;28;20545;-68
2022/01/29 00:05:09;;;;;;;3.77;3.37;;;4.60;99.90;;;;;;5043587;28;20287;-68
2022/01/29 00:07:41;;;;;;;4.50;3.17;;;4.60;99.90;;;;;;5044860;28;20194;-68
2022/01/29 00:10:09;;;;;;;4.43;3.10;;;4.70;99.90;;;;;;5038617;28;20196;-68
2022/01/29 00:12:35;;;;;;;6.37;2.93;;;4.60;99.90;;;;;;5044026;28;20279;-68
2022/01/29 00:15:02;;;;;;;4.87;3.17;;;4.50;99.90;;;;;;5045398;28;20202;-68
2022/01/29 00:17:28;;;;;;;3.57;2.97;;;4.60;99.90;;;;;;5035443;28;20200;-68
2022/01/29 00:19:55;;;;;;;4.90;3.23;;;4.60;99.90;;;;;;5052134;28;20790;-68
2022/01/29 00:22:22;;;;;;;3.23;2.80;;;4.60;99.90;;;;;;5046182;28;20195;-68
2022/01/29 00:24:48;;;;;;;3.20;2.50;;;4.60;99.90;;;;;;5053538;28;20195;-68
2022/01/29 00:27:18;;;;;;;3.07;2.67;;;4.60;99.90;;;;;;5051133;28;20188;-68
2022/01/29 00:29:44;;;;;;;3.30;2.50;;;4.60;99.90;;;;;;5031129;28;20230;-68
2022/01/29 00:32:12;;;;;;;3.37;2.73;;;4.50;99.90;;;;;;5044332;28;20793;-68
2022/01/29 00:34:40;;;;;;;5.30;2.93;;;4.50;99.90;;;;;;5033636;28;20201;-68
2022/01/29 00:37:08;;;;;;;3.80;2.73;;;4.50;99.90;;;;;;5051706;28;20219;-68
2022/01/29 00:39:37;;;;;;;4.20;2.83;;;4.50;99.90;;;;;;5052010;28;20183;-68
2022/01/29 00:42:05;;;;;;;3.23;2.90;;;4.50;99.90;;;;;;5034859;28;20183;-68
2022/01/29 00:44:31;;;;;;;3.20;2.90;;;4.50;99.90;;;;;;5030256;28;20200;-68
2022/01/29 00:46:58;;;;;;;3.33;2.80;;;4.50;99.90;;;;;;5038355;28;20744;-68
2022/01/29 00:49:24;;;;;;;3.20;2.63;;;4.50;99.90;;;;;;5034563;28;20967;-68
2022/01/29 00:51:50;;;;;;;3.70;2.50;;;4.40;99.90;;;;;;5042721;28;20677;-68
2022/01/29 00:54:16;;;;;;;2.53;2.27;;;4.40;99.90;;;;;;5043814;28;20183;-68
2022/01/29 00:56:42;;;;;;;3.00;2.70;;;4.40;99.90;;;;;;5043017;28;20219;-68
2022/01/29 00:59:09;;;;;;;2.77;2.43;;;4.40;99.90;;;;;;5032359;28;20207;-68
2022/01/29 01:01:35;;;;;;;4.20;2.47;;;4.40;99.90;;;;;;5018360;28;20856;-68
2022/01/29 01:04:01;;;;;;;2.43;2.17;;;4.40;99.90;;;;;;5018648;28;20198;-68
2022/01/29 01:06:28;;;;;;;3.30;2.40;;;4.50;99.90;;;;;;5042641;28;20187;-67
2022/01/29 01:08:54;;;;;;;3.60;2.30;;;4.50;99.90;;;;;;5041235;28;20211;-68
2022/01/29 01:11:20;;;;;;;5.83;2.50;;;4.50;99.90;;;;;;5051486;28;20685;-68
2022/01/29 01:13:46;;;;;;;3.27;2.47;;;4.50;99.90;;;;;;5049408;28;20199;-68
2022/01/29 01:16:12;;;;;;;2.73;2.30;;;4.50;99.90;;;;;;5046725;28;20222;-68
2022/01/29 01:18:39;;;;;;;3.40;2.50;;;4.60;99.90;;;;;;5050484;28;20196;-68
2022/01/29 01:21:05;;;;;;;3.70;2.40;;;4.60;99.90;;;;;;5034118;28;20252;-68
2022/01/29 01:23:31;;;;;;;3.23;2.33;;;4.60;99.90;;;;;;5050497;28;20548;-68
2022/01/29 01:26:01;;;;;;;3.97;2.50;;;4.50;99.90;;;;;;5052210;28;20197;-68
2022/01/29 01:28:28;;;;;;;4.20;2.97;;;4.40;99.90;;;;;;5025641;28;20183;-68
2022/01/29 01:30:54;;;;;;;3.00;2.40;;;4.50;99.90;;;;;;5041674;28;20343;-68
2022/01/29 01:33:20;;;;;;;2.70;2.37;;;4.50;99.90;;;;;;5008892;28;20187;-68
2022/01/29 01:35:51;;;;;;;3.63;2.37;;;4.50;99.90;;;;;;5013184;28;20199;-68
2022/01/29 01:38:22;;;;;;;2.83;2.27;;;4.50;99.90;;;;;;5026319;28;20762;-68
2022/01/29 01:40:54;;;;;;;3.00;2.37;;;4.40;99.90;;;;;;5052033;28;20219;-68
2022/01/29 01:43:21;;;;;;;3.03;2.40;;;4.50;99.90;;;;;;5029649;28;20191;-68
2022/01/29 01:45:47;;;;;;;2.77;2.40;;;4.40;99.90;;;;;;5049082;28;20187;-68
2022/01/29 01:48:14;;;;;;;3.03;2.27;;;4.40;99.90;;;;;;5047998;28;20226;-68
2022/01/29 01:50:41;;;;;;;2.77;2.23;;;4.30;99.90;;;;;;5044461;28;20199;-68
2022/01/29 01:53:08;;;;;;;5.23;2.63;;;4.40;99.90;;;;;;5042049;28;20624;-68
2022/01/29 01:55:36;;;;;;;2.33;2.10;;;4.30;99.90;;;;;;5037015;28;20199;-68
2022/01/29 01:58:02;;;;;;;2.87;2.17;;;4.30;99.90;;;;;;5016161;28;20205;-68
2022/01/29 02:00:29;;;;;;;2.70;2.10;;;4.20;99.90;;;;;;5048678;28;21064;-68
2022/01/29 02:02:56;;;;;;;3.40;2.50;;;4.20;99.90;;;;;;5028100;28;20282;-68
2022/01/29 02:05:22;;;;;;;2.77;2.40;;;4.20;99.90;;;;;;5051230;28;20731;-68
2022/01/29 02:07:49;;;;;;;4.80;2.30;;;4.20;99.90;;;;;;5048934;28;20221;-68
2022/01/29 02:10:17;;;;;;;3.10;2.40;;;4.20;99.90;;;;;;5051419;28;20632;-68
2022/01/29 02:12:45;;;;;;;3.30;2.40;;;4.20;99.90;;;;;;5049392;28;20878;-69
2022/01/29 02:15:12;;;;;;;2.10;1.90;;;4.10;99.90;;;;;;5026909;28;20199;-68
2022/01/29 02:17:39;;;;;;;4.63;3.00;;;4.10;99.90;;;;;;5055624;28;20240;-68
2022/01/29 02:20:06;;;;;;;2.60;2.17;;;4.10;99.90;;;;;;5035694;28;20910;-68
2022/01/29 02:22:32;;;;;;;3.03;2.37;;;4.10;99.90;;;;;;5033839;28;20282;-68
2022/01/29 02:24:58;;;;;;;3.37;2.47;;;4.10;99.90;;;;;;5011326;28;20209;-68
2022/01/29 02:27:25;;;;;;;3.67;2.37;;;4.10;99.90;;;;;;5028516;28;20183;-68
2022/01/29 02:29:53;;;;;;;3.63;2.50;;;4.10;99.90;;;;;;5044007;28;20175;-68
2022/01/29 02:32:19;;;;;;;2.80;2.50;;;4.10;99.90;;;;;;5024134;28;20188;-68
2022/01/29 02:34:46;;;;;;;2.83;2.37;;;4.10;99.90;;;;;;5053339;28;20215;-68
2022/01/29 02:37:13;;;;;;;3.07;2.67;;;4.10;99.90;;;;;;5029883;28;20210;-68
2022/01/29 02:39:39;;;;;;;3.90;2.10;;;4.10;99.90;;;;;;5043768;28;20261;-68
2022/01/29 02:42:06;;;;;;;2.90;2.30;;;4.00;99.90;;;;;;5043426;28;20253;-68
2022/01/29 02:44:32;;;;;;;3.83;2.30;;;4.00;99.90;;;;;;5026496;28;20643;-68
2022/01/29 02:47:14;;;;;;;3.53;2.27;;;4.00;99.90;;;;;;5050563;28;20859;-68
2022/01/29 02:49:41;;;;;;;3.47;2.50;;;4.00;99.90;;;;;;5015393;28;20183;-68
2022/01/29 02:52:07;;;;;;;2.23;2.03;;;4.00;99.90;;;;;;5025102;28;20195;-68
2022/01/29 02:54:35;;;;;;;3.13;2.40;;;3.90;99.90;;;;;;5022518;28;20664;-68
2022/01/29 02:57:01;;;;;;;4.67;2.80;;;4.00;99.90;;;;;;5041813;28;20184;-68
2022/01/29 02:59:27;;;;;;;3.03;2.43;;;3.90;99.90;;;;;;5026084;28;20192;-68
2022/01/29 03:01:53;;;;;;;2.73;2.20;;;3.90;99.90;;;;;;5046946;28;20208;-68
2022/01/29 03:04:19;;;;;;;3.27;2.67;;;3.90;99.90;;;;;;5015527;28;20199;-68
2022/01/29 03:06:46;;;;;;;5.53;3.17;;;3.90;99.90;;;;;;5043934;28;20187;-68
2022/01/29 03:09:12;;;;;;;3.07;2.60;;;3.90;99.90;;;;;;5041944;28;20192;-68
2022/01/29 03:11:38;;;;;;;2.53;2.33;;;4.00;99.90;;;;;;5044504;28;20204;-68
2022/01/29 03:14:05;;;;;;;3.57;2.77;;;4.00;99.90;;;;;;5050974;28;20199;-68
2022/01/29 03:16:31;;;;;;;2.97;2.40;;;4.10;99.90;;;;;;5051377;28;20257;-68
2022/01/29 03:18:57;;;;;;;3.23;2.77;;;4.10;99.90;;;;;;5046975;28;20215;-68
2022/01/29 03:21:23;;;;;;;3.57;2.80;;;4.10;99.90;;;;;;5025563;28;20218;-68
2022/01/29 03:23:49;;;;;;;5.43;2.50;;;4.20;99.90;;;;;;5034497;28;20206;-68
2022/01/29 03:26:16;;;;;;;3.37;2.50;;;4.20;99.90;;;;;;5048172;28;20179;-68
2022/01/29 03:28:42;;;;;;;3.10;2.50;;;4.20;99.90;;;;;;5028850;28;20195;-68
2022/01/29 03:31:08;;;;;;;3.70;2.60;;;4.30;99.90;;;;;;5052944;28;20182;-68
2022/01/29 03:33:34;;;;;;;2.80;2.50;;;4.30;99.90;;;;;;5066151;28;20241;-68
2022/01/29 03:36:01;;;;;;;6.20;2.80;;;4.30;99.90;;;;;;5048191;28;20286;-68
2022/01/29 03:38:27;;;;;;;4.80;2.80;;;4.40;99.90;;;;;;5045280;28;20212;-68
2022/01/29 03:40:57;;;;;;;4.63;2.70;;;4.40;99.90;;;;;;5029290;28;20306;-68
2022/01/29 03:43:31;;;;;;;2.93;2.53;;;4.40;99.90;;;;;;5029536;28;20187;-68
2022/01/29 03:45:58;;;;;;;5.93;3.23;;;4.50;99.90;;;;;;5033593;28;20278;-68
2022/01/29 03:48:24;;;;;;;3.63;2.63;;;4.50;99.90;;;;;;5016040;28;20293;-68
2022/01/29 03:50:50;;;;;;;4.20;2.50;;;4.50;99.90;;;;;;5059073;28;20199;-68
2022/01/29 03:53:17;;;;;;;2.83;2.53;;;4.60;99.90;;;;;;5029226;28;20206;-68
2022/01/29 03:55:43;;;;;;;4.00;3.10;;;4.60;99.90;;;;;;5047563;28;20249;-68
2022/01/29 03:58:09;;;;;;;6.00;2.67;;;4.60;99.90;;;;;;5027947;28;20261;-68
2022/01/29 04:00:36;;;;;;;4.73;2.80;;;4.60;99.90;;;;;;5044442;28;20212;-68
2022/01/29 04:03:02;;;;;;;7.93;2.93;;;4.60;99.90;;;;;;5043772;28;20302;-68
2022/01/29 04:05:28;;;;;;;6.90;2.83;;;4.60;99.90;;;;;;5044955;28;20191;-68
2022/01/29 04:07:55;;;;;;;3.70;2.57;;;4.60;99.90;;;;;;5027550;28;20195;-68
2022/01/29 04:10:23;;;;;;;4.00;2.97;;;4.60;99.90;;;;;;5045233;28;20222;-68
2022/01/29 04:12:51;;;;;;;4.67;2.90;;;4.60;99.90;;;;;;5046875;28;20235;-68
2022/01/29 04:15:17;;;;;;;5.17;3.03;;;4.60;99.90;;;;;;5044903;28;20671;-68
2022/01/29 04:17:44;;;;;;;4.77;3.30;;;4.60;99.90;;;;;;5044849;28;20326;-68
2022/01/29 04:20:12;;;;;;;4.57;3.57;;;4.60;99.90;;;;;;5044562;28;20222;-68
2022/01/29 04:22:38;;;;;;;4.03;3.10;;;4.60;99.90;;;;;;5038917;28;20314;-68
2022/01/29 04:25:05;;;;;;;3.10;2.73;;;4.60;99.90;;;;;;5048629;28;20251;-68
2022/01/29 04:27:39;;;;;;;4.00;3.10;;;4.60;99.90;;;;;;5031317;28;20201;-68
2022/01/29 04:30:12;;;;;;;6.30;3.57;;;4.60;99.90;;;;;;5045385;28;20261;-68
2022/01/29 04:35:08;;;;;;;4.60;2.97;;;4.70;99.90;;;;;;5042555;28;20230;-68
2022/01/29 04:37:35;;;;;;;3.97;3.00;;;4.70;99.90;;;;;;5041712;28;20219;-68
2022/01/29 04:40:04;;;;;;;3.80;3.03;;;4.70;99.90;;;;;;5029769;28;20218;-68
2022/01/29 04:42:31;;;;;;;3.23;2.90;;;4.70;99.90;;;;;;5025350;28;20194;-68
2022/01/29 04:44:57;;;;;;;4.43;3.10;;;4.70;99.90;;;;;;5027967;28;20816;-68
2022/01/29 04:47:24;;;;;;;4.30;3.30;;;4.70;99.90;;;;;;5014732;28;20202;-68
2022/01/29 04:49:50;;;;;;;4.23;3.17;;;4.70;99.90;;;;;;5050301;28;20296;-68
2022/01/29 04:52:16;;;;;;;3.90;2.67;;;4.70;99.90;;;;;;5047802;28;20182;-68
2022/01/29 04:54:42;;;;;;;4.63;2.97;;;4.60;99.90;;;;;;5046322;28;20199;-68
2022/01/29 04:57:09;;;;;;;4.77;3.33;;;4.60;99.90;;;;;;5051871;28;20206;-68
2022/01/29 04:59:35;;;;;;;4.67;3.40;;;4.60;99.90;;;;;;5050541;28;20180;-68
2022/01/29 05:02:01;;;;;;;3.27;2.97;;;4.60;99.90;;;;;;5048790;28;20260;-68
2022/01/29 05:04:27;;;;;;;3.87;3.33;;;4.60;99.90;;;;;;5042113;28;20187;-68
2022/01/29 05:06:53;;;;;;;5.00;3.07;;;4.70;99.90;;;;;;5056463;28;20552;-68
2022/01/29 05:09:20;;;;;;;3.93;3.30;;;4.60;99.90;;;;;;5042590;28;20191;-68
2022/01/29 05:11:49;;;;;;;6.73;3.03;;;4.60;99.90;;;;;;5026566;28;20235;-68
2022/01/29 05:14:28;;;;;;;4.23;3.30;;;4.70;99.90;;;;;;5045680;28;20188;-68
2022/01/29 05:26:50;;;;;;;3.57;3.20;;;4.70;99.90;;;;;;5026467;28;20198;-68
2022/01/29 05:27:58;;;;;;;3.80;3.40;;;4.80;99.90;;;;;;5049519;28;20187;-68
2022/01/29 05:30:24;;;;;;;3.70;3.00;;;4.80;99.90;;;;;;5035666;28;20287;-66
2022/01/29 05:32:51;;;;;;;4.73;3.40;;;4.80;99.90;;;;;;5009810;28;20191;-66
2022/01/29 05:35:17;;;;;;;4.77;2.90;;;4.80;99.90;;;;;;5043135;28;20322;-66
2022/01/29 05:37:45;;;;;;;3.83;2.70;;;4.80;99.90;;;;;;5025194;28;20719;-66
2022/01/29 05:40:12;;;;;;;3.07;2.77;;;4.90;99.90;;;;;;5045378;28;20207;-66
2022/01/29 05:42:38;;;;;;;3.77;2.87;;;4.90;99.90;;;;;;5025731;28;20242;-66
2022/01/29 05:45:05;;;;;;;3.37;2.90;;;4.90;99.90;;;;;;5053394;28;20225;-66
2022/01/29 05:47:31;;;;;;;5.80;3.00;;;4.90;99.90;;;;;;5023670;28;20353;-66
2022/01/29 05:49:57;;;;;;;4.13;3.07;;;4.90;99.90;;;;;;5048884;28;20223;-68
2022/01/29 05:52:23;;;;;;;3.40;3.03;;;4.90;99.90;;;;;;5042625;28;20199;-67
2022/01/29 05:54:51;;;;;;;2.63;2.43;;;4.90;99.90;;;;;;5048360;28;20199;-67
2022/01/29 05:57:17;;;;;;;10.20;2.83;;;4.80;99.90;;;;;;5039284;28;20187;-66
2022/01/29 05:59:43;;;;;;;3.20;2.43;;;4.80;99.90;;;;;;5056815;28;20205;-66
2022/01/29 06:02:10;;;;;;;3.67;2.73;;;4.80;99.90;;;;;;5054366;28;20209;-66
2022/01/29 06:04:36;;;;;;;3.10;2.60;;;4.80;99.90;;;;;;5049549;28;20179;-66
2022/01/29 06:07:03;;;;;;;4.60;2.80;;;4.80;99.90;;;;;;5041261;28;20274;-66
2022/01/29 06:09:29;;;;;;;4.20;2.80;;;4.80;99.90;;;;;;5025179;28;20726;-66
2022/01/29 06:11:55;;;;;;;4.83;2.70;;;4.90;99.90;;;;;;5049625;28;20901;-66
2022/01/29 06:14:21;;;;;;;6.20;2.90;;;4.90;99.90;;;;;;5040317;28;20195;-66
2022/01/29 06:16:48;;;;;;;5.63;2.80;;;4.90;99.90;;;;;;5051423;28;20210;-66
2022/01/29 06:19:14;;;;;;;4.57;3.00;;;5.00;99.90;;;;;;5044433;28;20333;-68
2022/01/29 06:21:40;;;;;;;3.17;2.87;;;5.00;99.90;;;;;;5030434;28;20219;-68
2022/01/29 06:24:06;;;;;;;3.30;2.90;;;5.10;99.90;;;;;;5023210;28;20187;-67
2022/01/29 06:26:33;;;;;;;4.40;3.57;;;5.20;99.90;;;;;;5043388;28;20463;-66
2022/01/29 06:28:59;;;;;;;4.93;3.57;;;5.30;99.90;;;;;;5030171;28;20194;-68
2022/01/29 06:31:26;;;;;;;3.40;3.10;;;5.40;99.90;;;;;;5028763;28;20833;-69
2022/01/29 06:33:52;;;;;;;3.93;3.37;;;5.40;99.90;;;;;;5049249;28;20803;-68
2022/01/29 06:36:18;;;;;;;6.63;3.13;;;5.50;99.90;;;;;;5032455;28;20194;-68
2022/01/29 06:38:44;;;;;;;4.73;3.30;;;5.60;99.90;;;;;;5010015;28;20318;-68
2022/01/29 06:41:10;;;;;;;5.03;3.10;;;5.70;99.90;;;;;;5052574;28;20211;-68
2022/01/29 06:43:39;;;;;;;4.20;3.40;;;5.80;99.90;;;;;;5026237;28;20191;-68
2022/01/29 06:46:05;;;;;;;4.07;3.50;;;5.80;99.90;;;;;;5015022;28;20187;-68
2022/01/29 06:48:31;;;;;;;5.77;3.70;;;5.90;99.90;;;;;;5044578;28;20577;-68
2022/01/29 06:50:57;;;;;;;4.57;3.50;;;6.00;99.90;;;;;;5031055;28;20706;-68
2022/01/29 06:53:23;;;;;;;4.63;3.23;;;6.10;99.90;;;;;;5043695;28;20190;-68
2022/01/29 06:55:50;;;;;;;3.17;2.87;;;6.20;99.90;;;;;;5041315;28;20211;-69
2022/01/29 06:58:16;;;;;;;3.90;3.13;;;6.20;99.90;;;;;;5048901;28;20191;-68
2022/01/29 07:00:42;;;;;;;4.00;3.20;;;6.30;99.90;;;;;;5051478;28;20682;-68
2022/01/29 07:03:08;;;;;;;4.63;3.10;;;6.30;99.90;;;;;;5013797;28;20198;-68
2022/01/29 07:05:35;;;;;;;3.23;2.70;;;6.40;99.90;;;;;;5040313;28;22354;-68
2022/01/29 07:08:01;;;;;;;3.30;3.00;;;6.50;99.90;;;;;;5038369;28;20211;-69
2022/01/29 07:10:27;;;;;;;4.27;3.00;;;6.50;99.90;;;;;;5058701;28;20798;-69
2022/01/29 07:12:54;;;;;;;3.20;2.70;;;6.60;99.90;;;;;;5046168;28;20661;-68
2022/01/29 07:15:20;;;;;;;3.30;2.60;;;6.60;99.90;;;;;;5048865;28;20194;-68
2022/01/29 07:17:46;;;;;;;3.73;3.10;;;6.70;99.90;;;;;;5040471;28;20199;-69
2022/01/29 07:20:12;;;;;;;5.47;2.93;;;6.80;99.90;;;;;;5037207;28;20276;-69
2022/01/29 07:22:39;;;;;;;4.90;2.70;;;6.90;99.90;;;;;;5048699;28;20918;-68
2022/01/29 07:25:07;;;;;;;5.23;2.90;;;6.90;99.90;;;;;;5034026;28;20206;-68
2022/01/29 07:27:34;;;;;;;3.97;2.83;;;6.90;99.90;;;;;;5043308;28;20677;-68
2022/01/29 07:30:00;;;;;;;4.47;2.70;;;7.00;99.90;;;;;;5049541;28;20840;-69
2022/01/29 07:32:26;;;;;;;5.03;2.60;;;7.10;99.90;;;;;;5034188;28;20204;-69
2022/01/29 07:34:53;;;;;;;5.07;2.90;;;7.10;99.90;;;;;;5044961;28;20584;-68
2022/01/29 07:37:19;;;;;;;4.23;3.07;;;7.20;99.90;;;;;;5034564;28;20261;-68
2022/01/29 07:39:45;;;;;;;2.93;2.57;;;7.30;99.90;;;;;;5047094;28;20194;-68
2022/01/29 07:42:11;;;;;;;3.70;3.00;;;7.30;99.90;;;;;;5029494;28;20200;-68
2022/01/29 07:44:38;;;;;;;3.30;2.30;;;7.40;99.90;;;;;;5029475;28;20843;-66
2022/01/29 07:47:05;;;;;;;4.47;2.67;;;7.40;99.90;;;;;;5058729;28;20287;-66
2022/01/29 07:49:31;;;;;;;3.83;2.67;;;7.50;99.90;;;;;;5041675;28;20277;-66
2022/01/29 07:51:57;;;;;;;4.83;2.77;;;7.50;99.90;;;;;;5059123;28;20698;-66
2022/01/29 07:54:23;;;;;;;3.83;2.90;;;7.60;99.90;;;;;;5045135;28;20199;-67
2022/01/29 07:56:49;;;;;;;5.80;2.57;;;7.60;99.90;;;;;;5052845;28;20807;-67
2022/01/29 07:59:16;;;;;;;4.43;2.70;;;7.70;99.90;;;;;;5030252;28;20261;-67
2022/01/29 08:01:42;;;;;;;3.80;2.67;;;7.80;99.90;;;;;;5049566;28;20367;-67
2022/01/29 08:04:08;;;;;;;4.80;3.10;;;7.80;99.90;;;;;;5036087;28;20237;-67
2022/01/29 08:06:34;;;;;;;3.47;2.37;;;7.80;99.90;;;;;;5047152;28;20194;-67
2022/01/29 08:09:01;;;;;;;4.37;2.43;;;7.90;99.90;;;;;;5038184;28;20192;-67
2022/01/29 08:11:27;;;;;;;3.60;2.63;;;7.90;99.90;;;;;;5059041;28;20302;-67
2022/01/29 08:13:54;;;;;;;3.53;2.50;;;8.00;99.90;;;;;;5043417;28;20195;-67
2022/01/29 08:16:20;;;;;;;3.30;2.70;;;8.00;99.90;;;;;;5052291;28;20187;-66
2022/01/29 08:18:46;;;;;;;3.87;2.50;;;8.10;99.90;;;;;;5027105;28;20210;-67
2022/01/29 08:21:15;;;;;;;3.80;2.17;;;8.10;99.90;;;;;;5028157;28;20208;-67
2022/01/29 08:23:42;;;;;;;5.40;2.20;;;8.20;99.90;;;;;;5040877;28;20195;-68
2022/01/29 08:26:09;;;;;;;3.87;2.67;;;8.10;99.90;;;;;;5042289;28;20192;-67
2022/01/29 08:28:36;;;;;;;3.63;2.77;;;8.10;99.90;;;;;;5045245;28;20194;-67
2022/01/29 08:31:03;;;;;;;3.10;2.40;;;8.20;99.90;;;;;;5025678;28;20195;-67
2022/01/29 08:33:29;;;;;;;4.63;2.80;;;8.20;99.90;;;;;;5032852;28;20270;-67
2022/01/29 08:35:58;;;;;;;6.43;2.80;;;8.20;99.90;;;;;;5042034;28;20195;-67
2022/01/29 08:38:26;;;;;;;3.13;2.67;;;8.20;99.90;;;;;;5026179;28;20230;-67
2022/01/29 08:40:54;;;;;;;2.77;2.53;;;8.20;99.90;;;;;;5044402;28;20215;-67
2022/01/29 08:43:22;;;;;;;3.90;2.67;;;8.30;99.90;;;;;;5047915;28;20184;-67
2022/01/29 08:45:53;;;;;;;3.37;2.60;;;8.30;99.90;;;;;;5052894;28;20191;-67
2022/01/29 08:48:20;;;;;;;3.07;2.77;;;8.30;99.90;;;;;;5039507;28;20636;-67
2022/01/29 08:50:49;;;;;;;3.90;2.53;;;8.30;99.90;;;;;;5047428;28;20221;-67
2022/01/29 08:53:19;;;;;;;4.37;2.50;;;8.30;99.90;;;;;;5044825;28;20199;-67
2022/01/29 08:55:45;;;;;;;2.80;2.50;;;8.40;99.90;;;;;;5026158;28;20663;-67
2022/01/29 08:58:13;;;;;;;2.77;2.57;;;8.40;99.90;;;;;;5026011;28;20968;-67
2022/01/29 09:00:47;;;;;;;3.33;3.00;;;8.50;99.90;;;;;;5032661;28;20418;-67
2022/01/29 09:03:17;;;;;;;3.47;2.50;;;8.50;99.90;;;;;;5010342;28;20223;-67
2022/01/29 09:05:45;;;;;;;4.47;2.63;;;8.50;99.90;;;;;;5046275;28;20669;-67
2022/01/29 09:08:17;;;;;;;3.30;2.80;;;8.60;99.90;;;;;;5044853;28;20197;-67
2022/01/29 09:10:44;;;;;;;4.30;3.30;;;8.60;99.90;;;;;;5045186;28;20205;-67
2022/01/29 09:13:12;;;;;;;3.40;2.47;;;8.60;99.90;;;;;;5025252;28;20578;-67
2022/01/29 09:15:39;;;;;;;7.00;2.20;;;8.60;99.90;;;;;;5044746;28;20261;-69
2022/01/29 09:18:05;;;;;;;3.73;2.40;;;8.60;99.90;;;;;;5045036;28;20183;-67
2022/01/29 09:20:32;;;;;;;5.40;2.60;;;8.60;99.90;;;;;;5044427;28;20294;-67
2022/01/29 09:22:59;;;;;;;3.20;2.60;;;8.70;99.90;;;;;;5026904;28;20187;-67
2022/01/29 09:25:26;;;;;;;6.57;2.70;;;8.70;99.90;;;;;;5042683;28;20283;-68
2022/01/29 09:27:53;;;;;;;3.77;2.53;;;8.70;99.90;;;;;;5040676;28;20192;-67
2022/01/29 09:30:20;;;;;;;2.93;2.63;;;8.70;99.90;;;;;;5009641;28;20190;-67
2022/01/29 09:32:47;;;;;;;4.33;2.90;;;8.80;99.90;;;;;;5009119;28;20878;-67
2022/01/29 09:35:13;;;;;;;3.07;2.77;;;8.70;99.90;;;;;;5043868;28;20192;-67
2022/01/29 09:37:39;;;;;;;3.73;2.60;;;8.70;99.90;;;;;;5008028;28;20349;-67
2022/01/29 09:40:07;;;;;;;3.00;2.70;;;8.70;99.90;;;;;;5041973;28;20199;-67
2022/01/29 09:42:35;;;;;;;2.90;2.60;;;8.70;99.90;;;;;;5026602;28;20951;-67
2022/01/29 09:45:03;;;;;;;3.90;2.80;;;8.70;99.90;;;;;;5025548;28;20674;-67
2022/01/29 09:47:31;;;;;;;5.80;3.03;;;8.70;99.90;;;;;;5026225;28;20235;-67
2022/01/29 09:49:58;;;;;;;6.07;2.77;;;8.70;99.90;;;;;;5025678;28;20191;-67
2022/01/29 09:52:25;;;;;;;3.53;2.60;;;8.60;99.90;;;;;;5005916;28;20623;-67
2022/01/29 09:54:52;;;;;;;3.27;2.40;;;8.60;99.90;;;;;;5002686;28;20204;-67
2022/01/29 09:57:19;;;;;;;3.77;2.87;;;8.60;99.90;;;;;;5039653;28;20187;-67
2022/01/29 09:59:48;;;;;;;6.00;3.27;;;8.60;99.90;;;;;;5049177;28;20184;-67
2022/01/29 10:02:18;;;;;;;2.70;2.50;;;8.60;99.90;;;;;;5043750;28;20723;-67
2022/01/29 10:04:51;;;;;;;3.67;3.27;;;8.70;99.90;;;;;;5024851;28;20248;-67
2022/01/29 10:07:29;;;;;;;3.90;3.07;;;8.70;99.90;;;;;;5045995;28;20191;-67
2022/01/29 10:09:59;;;;;;;3.00;2.70;;;8.70;99.90;;;;;;5033457;28;20199;-67
2022/01/29 10:12:32;;;;;;;2.67;2.47;;;8.70;99.90;;;;;;5008863;28;20218;-67
2022/01/29 10:15:04;;;;;;;3.27;2.80;;;8.70;99.90;;;;;;5022496;28;20307;-67
2022/01/29 10:17:46;;;;;;;2.90;2.60;;;8.70;99.90;;;;;;5026501;28;20641;-67
2022/01/29 10:20:22;;;;;;;3.60;2.30;;;8.70;99.90;;;;;;5023542;28;20829;-67
2022/01/29 10:22:55;;;;;;;3.30;2.30;;;8.60;99.90;;;;;;5039069;28;20195;-67
2022/01/29 10:25:36;;;;;;;2.73;2.53;;;8.70;99.90;;;;;;5040559;28;20221;-67
2022/01/29 10:28:18;;;;;;;5.37;2.60;;;8.60;99.90;;;;;;5004920;28;20192;-67
2022/01/29 10:30:51;;;;;;;4.53;2.90;;;8.70;99.90;;;;;;5040902;28;20187;-68
2022/01/29 10:33:25;;;;;;;3.13;2.70;;;8.70;99.90;;;;;;5042571;28;20187;-67
2022/01/29 10:35:58;;;;;;;2.93;2.63;;;8.60;99.90;;;;;;5045675;28;20219;-67
2022/01/29 10:38:28;;;;;;;3.07;2.77;;;8.60;99.90;;;;;;5048889;28;20230;-67
2022/01/29 10:41:28;;;;;;;4.00;2.73;;;8.60;99.90;;;;;;5029985;28;20269;-67
2022/01/29 10:44:16;;;;;;;3.73;3.10;;;8.70;99.90;;;;;;5013869;28;20191;-67
2022/01/29 10:46:52;;;;;;;3.00;2.70;;;8.70;99.90;;;;;;5056197;28;20772;-67
2022/01/29 10:49:29;;;;;;;3.33;2.50;;;8.70;99.90;;;;;;5044067;28;20186;-67
2022/01/29 10:52:09;;;;;;;3.03;2.70;;;8.70;99.90;;;;;;5028570;28;20201;-68
2022/01/29 10:54:38;;;;;;;4.53;2.90;;;8.80;99.90;;;;;;5047076;28;20580;-67
2022/01/29 10:57:11;;;;;;;3.17;2.83;;;8.80;99.90;;;;;;5043055;28;20836;-67
2022/01/29 10:59:53;;;;;;;3.20;2.60;;;8.90;99.90;;;;;;5045164;28;20188;-68
2022/01/29 11:02:24;;;;;;;3.37;2.80;;;8.90;99.90;;;;;;5035740;28;20224;-68
2022/01/29 11:04:51;;;;;;;3.73;2.70;;;9.00;99.90;;;;;;5047874;28;20187;-68
2022/01/29 11:07:18;;;;;;;5.30;2.40;;;9.00;99.90;;;;;;5051576;28;20249;-68
2022/01/29 11:09:50;;;;;;;4.93;2.70;;;9.00;99.90;;;;;;5026064;28;20193;-68
2022/01/29 11:12:22;;;;;;;4.20;2.40;;;9.00;99.90;;;;;;5042600;28;20191;-67
2022/01/29 11:14:52;;;;;;;3.50;2.83;;;9.10;99.90;;;;;;5052398;28;20191;-68
2022/01/29 11:17:19;;;;;;;3.80;2.63;;;9.20;99.90;;;;;;5025067;28;20258;-67
2022/01/29 11:19:46;;;;;;;2.73;2.43;;;9.30;99.90;;;;;;5042635;28;20184;-68
2022/01/29 11:22:20;;;;;;;6.27;2.37;;;9.30;99.90;;;;;;5044610;28;20649;-67
2022/01/29 11:24:50;;;;;;;2.43;1.90;;;9.30;99.90;;;;;;5030475;28;20913;-67
2022/01/29 11:27:34;;;;;;;3.10;2.20;;;9.30;99.90;;;;;;5028381;28;20192;-67
2022/01/29 11:30:15;;;;;;;2.37;2.17;;;9.40;99.90;;;;;;5012381;28;20183;-67
2022/01/29 11:32:47;;;;;;;2.80;2.50;;;9.40;99.90;;;;;;5028964;28;20277;-67
2022/01/29 11:35:30;;;;;;;2.53;2.10;;;9.50;99.90;;;;;;5029893;28;20242;-67
2022/01/29 11:38:10;;;;;;;3.30;2.40;;;9.60;99.90;;;;;;5021426;28;20603;-67
2022/01/29 11:41:02;;;;;;;2.93;1.90;;;9.60;99.90;;;;;;5013055;28;20211;-67
2022/01/29 11:43:31;;;;;;;3.10;2.50;;;9.70;99.90;;;;;;5030249;28;20179;-67
2022/01/29 11:46:33;;;;;;;2.83;2.53;;;9.80;99.90;;;;;;5013161;28;20195;-67
2022/01/29 11:49:18;;;;;;;2.57;2.00;;;9.90;99.90;;;;;;5029855;28;20312;-69
2022/01/29 11:51:50;;;;;;;3.33;2.40;;;9.90;99.90;;;;;;5044078;28;20667;-69
2022/01/29 11:54:24;;;;;;;2.43;2.23;;;9.90;99.90;;;;;;5025550;28;21002;-67
2022/01/29 11:57:16;;;;;;;4.50;2.63;;;9.90;99.90;;;;;;5008372;28;20228;-68
2022/01/29 11:59:43;;;;;;;4.03;2.40;;;10.00;99.90;;;;;;5045945;28;20208;-68
2022/01/29 12:02:29;;;;;;;3.13;2.40;;;10.00;99.90;;;;;;5027127;28;20211;-68
2022/01/29 12:05:04;;;;;;;3.00;2.33;;;10.00;99.90;;;;;;4997472;28;20207;-69
2022/01/29 12:07:37;;;;;;;4.30;2.97;;;10.00;99.90;;;;;;5046822;28;20190;-67
2022/01/29 12:10:09;;;;;;;4.20;2.80;;;10.00;99.90;;;;;;5011153;28;20183;-67
2022/01/29 12:12:41;;;;;;;3.23;2.67;;;10.00;99.90;;;;;;5025620;28;20317;-68
2022/01/29 12:15:11;;;;;;;3.80;3.07;;;10.00;99.90;;;;;;5006463;28;20659;-68
2022/01/29 12:17:58;;;;;;;3.27;2.90;;;10.00;99.90;;;;;;5046025;28;20662;-68
2022/01/29 12:20:26;;;;;;;3.17;2.63;;;10.00;99.90;;;;;;5043958;28;20211;-68
2022/01/29 12:23:00;;;;;;;4.40;2.73;;;10.00;99.90;;;;;;5024863;28;20184;-68
2022/01/29 12:25:28;;;;;;;5.37;2.13;;;9.90;99.90;;;;;;5008205;28;20223;-67
2022/01/29 12:27:59;;;;;;;3.67;2.80;;;9.90;99.90;;;;;;5017867;28;20245;-67
2022/01/29 12:30:30;;;;;;;2.83;2.30;;;9.90;99.90;;;;;;5020520;28;20223;-67
2022/01/29 12:33:04;;;;;;;2.57;2.37;;;9.90;99.90;;;;;;5039209;28;20738;-67
2022/01/29 12:35:36;;;;;;;2.80;2.50;;;9.90;99.90;;;;;;5038690;28;20219;-68
2022/01/29 12:38:09;;;;;;;3.33;2.10;;;9.90;99.90;;;;;;5022222;28;20309;-67
2022/01/29 12:40:40;;;;;;;3.17;2.50;;;9.90;99.90;;;;;;5027359;28;20290;-67
2022/01/29 12:43:41;;;;;;;3.77;2.50;;;9.90;99.90;;;;;;5045195;28;20187;-66
2022/01/29 12:46:13;;;;;;;3.00;2.40;;;9.90;99.90;;;;;;5044957;28;20195;-67
2022/01/29 12:48:42;;;;;;;4.83;2.70;;;9.90;99.90;;;;;;5043844;28;20680;-67
2022/01/29 12:51:11;;;;;;;3.53;2.73;;;9.90;99.90;;;;;;5028074;28;20199;-67
2022/01/29 12:53:39;;;;;;;4.23;2.43;;;9.90;99.90;;;;;;5046311;28;20203;-67
2022/01/29 12:56:12;;;;;;;6.40;2.50;;;9.80;99.90;;;;;;5028593;28;20199;-67
2022/01/29 12:58:43;;;;;;;2.87;2.47;;;9.90;99.90;;;;;;5045140;28;20188;-67
2022/01/29 13:01:17;;;;;;;4.00;2.50;;;9.80;99.90;;;;;;5026671;28;20333;-67
2022/01/29 13:03:44;;;;;;;3.77;2.30;;;9.90;99.90;;;;;;5008413;28;20190;-67
2022/01/29 13:06:17;;;;;;;3.63;2.30;;;9.80;99.90;;;;;;5043923;28;20195;-67
2022/01/29 13:08:44;;;;;;;2.77;2.17;;;9.80;99.90;;;;;;5011342;28;20191;-67
2022/01/29 13:11:28;;;;;;;4.80;2.60;;;9.80;99.90;;;;;;5045300;28;20300;-67
2022/01/29 13:13:56;;;;;;;3.10;2.60;;;9.80;99.90;;;;;;5045750;28;20299;-67
2022/01/29 13:16:31;;;;;;;4.70;2.87;;;9.70;99.90;;;;;;5046857;28;20910;-67